Time,TemperatureF,DewpointF,PressureIn,WindDirection,WindDirectionDegrees,WindSpeedMPH,WindSpeedGustMPH,Humidity,HourlyPrecipIn,Conditions,Clouds,dailyrainin,SolarRadiationWatts/m^2,SoftwareType,DateUTC
2013-03-18 00:04:00,60.6,57.3,30.00,WSW,248,3.0,-999.0,89,0.00,,,0.00,0,Wunderground v.1.15,2013-03-17 13:04:00,
2013-03-18 00:09:00,60.6,57.3,30.00,WSW,248,3.0,-999.0,89,0.00,,,0.00,0,Wunderground v.1.15,2013-03-17 13:09:00,
2013-03-18 00:14:00,60.6,57.3,30.00,WSW,248,3.0,-999.0,89,0.00,,,0.00,0,Wunderground v.1.15,2013-03-17 13:14:00,
2013-03-18 00:19:00,60.6,57.3,30.00,WSW,248,3.0,-999.0,89,0.00,,,0.00,0,Wunderground v.1.15,2013-03-17 13:19:00,
2013-03-18 00:24:00,60.6,57.3,30.00,WSW,248,3.0,-999.0,89,0.00,,,0.00,0,Wunderground v.1.15,2013-03-17 13:24:00,
2013-03-18 00:29:00,60.6,57.3,30.00,WSW,248,3.0,-999.0,89,0.00,,,0.00,0,Wunderground v.1.15,2013-03-17 13:29:00,
2013-03-18 00:34:00,60.6,57.3,30.00,WSW,248,3.0,-999.0,89,0.00,,,0.00,0,Wunderground v.1.15,2013-03-17 13:34:00,
2013-03-18 00:39:00,60.6,57.3,30.00,WSW,248,3.0,-999.0,89,0.00,,,0.00,0,Wunderground v.1.15,2013-03-17 13:39:00,
2013-03-18 00:44:00,60.6,57.3,30.00,WSW,248,3.0,-999.0,89,0.00,,,0.00,0,Wunderground v.1.15,2013-03-17 13:44:00,
2013-03-18 00:49:00,61.0,56.1,30.00,West,270,2.0,-999.0,84,0.00,,,0.00,0,Wunderground v.1.15,2013-03-17 13:49:00,
2013-03-18 00:54:00,61.0,56.1,30.00,West,270,2.0,-999.0,84,0.00,,,0.00,0,Wunderground v.1.15,2013-03-17 13:54:00,
2013-03-18 00:59:00,61.0,56.1,30.00,West,270,2.0,-999.0,84,0.00,,,0.00,0,Wunderground v.1.15,2013-03-17 13:59:00,
2013-03-18 01:04:00,61.0,56.1,30.00,West,270,2.0,-999.0,84,0.00,,,0.00,0,Wunderground v.1.15,2013-03-17 14:04:00,
2013-03-18 01:09:00,61.0,56.1,30.00,West,270,2.0,-999.0,84,0.00,,,0.00,0,Wunderground v.1.15,2013-03-17 14:09:00,
2013-03-18 01:14:00,61.0,56.1,30.00,West,270,2.0,-999.0,84,0.00,,,0.00,0,Wunderground v.1.15,2013-03-17 14:14:00,
2013-03-18 01:19:00,63.3,57.4,29.99,WSW,248,3.0,-999.0,81,0.00,,,0.00,0,Wunderground v.1.15,2013-03-17 14:19:00,
2013-03-18 01:24:00,63.3,57.4,29.99,WSW,248,3.0,-999.0,81,0.00,,,0.00,0,Wunderground v.1.15,2013-03-17 14:24:00,
2013-03-18 01:29:00,63.3,57.4,29.99,WSW,248,3.0,-999.0,81,0.00,,,0.00,0,Wunderground v.1.15,2013-03-17 14:29:00,
2013-03-18 01:34:00,63.3,57.4,29.99,WSW,248,3.0,-999.0,81,0.00,,,0.00,0,Wunderground v.1.15,2013-03-17 14:34:00,
2013-03-18 01:39:00,63.3,57.4,29.99,WSW,248,3.0,-999.0,81,0.00,,,0.00,0,Wunderground v.1.15,2013-03-17 14:39:00,
2013-03-18 01:44:00,63.3,57.4,29.99,WSW,248,3.0,-999.0,81,0.00,,,0.00,0,Wunderground v.1.15,2013-03-17 14:44:00,
2013-03-18 01:49:00,63.1,59.5,29.99,NW,315,2.0,-999.0,88,0.00,,,0.00,0,Wunderground v.1.15,2013-03-17 14:49:00,
2013-03-18 01:54:00,63.1,59.5,29.99,NW,315,2.0,-999.0,88,0.00,,,0.00,0,Wunderground v.1.15,2013-03-17 14:54:00,
2013-03-18 01:59:00,63.1,59.5,29.99,NW,315,2.0,-999.0,88,0.00,,,0.00,0,Wunderground v.1.15,2013-03-17 14:59:00,
2013-03-18 02:04:00,63.1,59.5,29.99,NW,315,2.0,-999.0,88,0.00,,,0.00,0,Wunderground v.1.15,2013-03-17 15:04:00,
2013-03-18 02:09:00,63.1,59.5,29.99,NW,315,2.0,-999.0,88,0.00,,,0.00,0,Wunderground v.1.15,2013-03-17 15:09:00,
2013-03-18 02:14:00,63.1,59.5,29.99,NW,315,2.0,-999.0,88,0.00,,,0.00,0,Wunderground v.1.15,2013-03-17 15:14:00,
2013-03-18 02:19:00,61.5,57.9,30.00,West,270,2.0,-999.0,88,0.00,,,0.00,0,Wunderground v.1.15,2013-03-17 15:19:00,
2013-03-18 02:24:00,61.5,57.9,30.00,West,270,2.0,-999.0,88,0.00,,,0.00,0,Wunderground v.1.15,2013-03-17 15:24:00,
2013-03-18 02:29:00,61.5,57.9,30.00,West,270,2.0,-999.0,88,0.00,,,0.00,0,Wunderground v.1.15,2013-03-17 15:29:00,
2013-03-18 02:34:00,61.5,57.9,30.00,West,270,2.0,-999.0,88,0.00,,,0.00,0,Wunderground v.1.15,2013-03-17 15:34:00,
2013-03-18 02:39:00,61.5,57.9,30.00,West,270,2.0,-999.0,88,0.00,,,0.00,0,Wunderground v.1.15,2013-03-17 15:39:00,
2013-03-18 02:44:00,61.5,57.9,30.00,West,270,2.0,-999.0,88,0.00,,,0.00,0,Wunderground v.1.15,2013-03-17 15:44:00,
2013-03-18 02:49:00,60.2,57.6,29.99,WSW,248,2.0,-999.0,91,0.00,,,0.00,0,Wunderground v.1.15,2013-03-17 15:49:00,
2013-03-18 02:54:00,60.2,57.6,29.99,WSW,248,2.0,-999.0,91,0.00,,,0.00,0,Wunderground v.1.15,2013-03-17 15:54:00,
2013-03-18 02:59:00,60.2,57.6,29.99,WSW,248,2.0,-999.0,91,0.00,,,0.00,0,Wunderground v.1.15,2013-03-17 15:59:00,
2013-03-18 03:04:00,60.2,57.6,29.99,WSW,248,2.0,-999.0,91,0.00,,,0.00,0,Wunderground v.1.15,2013-03-17 16:04:00,
2013-03-18 03:09:00,60.2,57.6,29.99,WSW,248,2.0,-999.0,91,0.00,,,0.00,0,Wunderground v.1.15,2013-03-17 16:09:00,
2013-03-18 03:14:00,60.2,57.6,29.99,WSW,248,2.0,-999.0,91,0.00,,,0.00,0,Wunderground v.1.15,2013-03-17 16:14:00,
2013-03-18 03:19:00,59.3,57.3,29.99,WSW,248,1.0,-999.0,93,0.00,,,0.00,0,Wunderground v.1.15,2013-03-17 16:19:00,
2013-03-18 03:24:00,59.3,57.3,29.99,WSW,248,1.0,-999.0,93,0.00,,,0.00,0,Wunderground v.1.15,2013-03-17 16:24:00,
2013-03-18 03:29:00,59.3,57.3,29.99,WSW,248,1.0,-999.0,93,0.00,,,0.00,0,Wunderground v.1.15,2013-03-17 16:29:00,
2013-03-18 03:34:00,59.3,57.3,29.99,WSW,248,1.0,-999.0,93,0.00,,,0.00,0,Wunderground v.1.15,2013-03-17 16:34:00,
2013-03-18 03:39:00,59.3,57.3,29.99,WSW,248,1.0,-999.0,93,0.00,,,0.00,0,Wunderground v.1.15,2013-03-17 16:39:00,
2013-03-18 03:44:00,59.3,57.3,29.99,WSW,248,1.0,-999.0,93,0.00,,,0.00,0,Wunderground v.1.15,2013-03-17 16:44:00,
2013-03-18 03:49:00,59.1,56.8,29.99,SSW,203,0.0,-999.0,92,0.00,,,0.00,0,Wunderground v.1.15,2013-03-17 16:49:00,
2013-03-18 03:54:00,59.1,56.8,29.99,SSW,203,0.0,-999.0,92,0.00,,,0.00,0,Wunderground v.1.15,2013-03-17 16:54:00,
2013-03-18 03:59:00,59.1,56.8,29.99,SSW,203,0.0,-999.0,92,0.00,,,0.00,0,Wunderground v.1.15,2013-03-17 16:59:00,
2013-03-18 04:04:00,59.1,56.8,29.99,SSW,203,0.0,-999.0,92,0.00,,,0.00,0,Wunderground v.1.15,2013-03-17 17:04:00,
2013-03-18 04:09:00,59.1,56.8,29.99,SSW,203,0.0,-999.0,92,0.00,,,0.00,0,Wunderground v.1.15,2013-03-17 17:09:00,
2013-03-18 04:14:00,59.1,56.8,29.99,SSW,203,0.0,-999.0,92,0.00,,,0.00,0,Wunderground v.1.15,2013-03-17 17:14:00,
2013-03-18 04:19:00,58.5,55.3,29.99,SW,225,2.0,-999.0,89,0.00,,,0.00,0,Wunderground v.1.15,2013-03-17 17:19:00,
2013-03-18 04:24:00,58.5,55.3,29.99,SW,225,2.0,-999.0,89,0.00,,,0.00,0,Wunderground v.1.15,2013-03-17 17:24:00,
2013-03-18 04:29:00,58.5,55.3,29.99,SW,225,2.0,-999.0,89,0.00,,,0.00,0,Wunderground v.1.15,2013-03-17 17:29:00,
2013-03-18 04:34:00,58.5,55.3,29.99,SW,225,2.0,-999.0,89,0.00,,,0.00,0,Wunderground v.1.15,2013-03-17 17:34:00,
2013-03-18 04:39:00,58.5,55.3,29.99,SW,225,2.0,-999.0,89,0.00,,,0.00,0,Wunderground v.1.15,2013-03-17 17:39:00,
2013-03-18 04:44:00,58.5,55.3,29.99,SW,225,2.0,-999.0,89,0.00,,,0.00,0,Wunderground v.1.15,2013-03-17 17:44:00,
2013-03-18 04:49:00,57.9,54.1,29.99,SW,225,2.0,-999.0,87,0.00,,,0.00,0,Wunderground v.1.15,2013-03-17 17:49:00,
2013-03-18 04:54:00,57.9,54.1,29.99,SW,225,2.0,-999.0,87,0.00,,,0.00,0,Wunderground v.1.15,2013-03-17 17:54:00,
2013-03-18 04:59:00,57.9,54.1,29.99,SW,225,2.0,-999.0,87,0.00,,,0.00,0,Wunderground v.1.15,2013-03-17 17:59:00,
2013-03-18 05:04:00,57.9,54.1,29.99,SW,225,2.0,-999.0,87,0.00,,,0.00,0,Wunderground v.1.15,2013-03-17 18:04:00,
2013-03-18 05:09:00,57.9,54.1,29.99,SW,225,2.0,-999.0,87,0.00,,,0.00,0,Wunderground v.1.15,2013-03-17 18:09:00,
2013-03-18 05:14:00,57.9,54.1,29.99,SW,225,2.0,-999.0,87,0.00,,,0.00,0,Wunderground v.1.15,2013-03-17 18:14:00,
2013-03-18 05:19:00,57.7,53.5,30.00,SW,225,2.0,-999.0,86,0.00,,,0.00,0,Wunderground v.1.15,2013-03-17 18:19:00,
2013-03-18 05:24:00,57.7,53.5,30.00,SW,225,2.0,-999.0,86,0.00,,,0.00,0,Wunderground v.1.15,2013-03-17 18:24:00,
2013-03-18 05:29:00,57.7,53.5,30.00,SW,225,2.0,-999.0,86,0.00,,,0.00,0,Wunderground v.1.15,2013-03-17 18:29:00,
2013-03-18 05:34:00,57.7,53.5,30.00,SW,225,2.0,-999.0,86,0.00,,,0.00,0,Wunderground v.1.15,2013-03-17 18:34:00,
2013-03-18 05:39:00,57.7,53.5,30.00,SW,225,2.0,-999.0,86,0.00,,,0.00,0,Wunderground v.1.15,2013-03-17 18:39:00,
2013-03-18 05:44:00,57.7,53.5,30.00,SW,225,2.0,-999.0,86,0.00,,,0.00,0,Wunderground v.1.15,2013-03-17 18:44:00,
2013-03-18 05:49:00,57.7,52.6,30.02,SW,225,3.0,-999.0,83,0.00,,,0.00,0,Wunderground v.1.15,2013-03-17 18:49:00,
2013-03-18 05:54:00,57.7,52.6,30.02,SW,225,3.0,-999.0,83,0.00,,,0.00,0,Wunderground v.1.15,2013-03-17 18:54:00,
2013-03-18 05:59:00,57.7,52.6,30.02,SW,225,3.0,-999.0,83,0.00,,,0.00,0,Wunderground v.1.15,2013-03-17 18:59:00,
2013-03-18 06:04:00,57.7,52.6,30.02,SW,225,3.0,-999.0,83,0.00,,,0.00,0,Wunderground v.1.15,2013-03-17 19:04:00,
2013-03-18 06:09:00,57.7,52.6,30.02,SW,225,3.0,-999.0,83,0.00,,,0.00,0,Wunderground v.1.15,2013-03-17 19:09:00,
2013-03-18 06:14:00,57.7,52.6,30.02,SW,225,3.0,-999.0,83,0.00,,,0.00,0,Wunderground v.1.15,2013-03-17 19:14:00,
2013-03-18 06:19:00,57.5,52.7,30.02,West,270,1.0,-999.0,84,0.00,,,0.00,0,Wunderground v.1.15,2013-03-17 19:19:00,
2013-03-18 06:24:00,57.5,52.7,30.02,West,270,1.0,-999.0,84,0.00,,,0.00,0,Wunderground v.1.15,2013-03-17 19:24:00,
2013-03-18 06:29:00,57.5,52.7,30.02,West,270,1.0,-999.0,84,0.00,,,0.00,0,Wunderground v.1.15,2013-03-17 19:29:00,
2013-03-18 06:34:00,57.5,52.7,30.02,West,270,1.0,-999.0,84,0.00,,,0.00,0,Wunderground v.1.15,2013-03-17 19:34:00,
2013-03-18 06:39:00,57.5,52.7,30.02,West,270,1.0,-999.0,84,0.00,,,0.00,0,Wunderground v.1.15,2013-03-17 19:39:00,
2013-03-18 06:44:00,57.5,52.7,30.02,West,270,1.0,-999.0,84,0.00,,,0.00,0,Wunderground v.1.15,2013-03-17 19:44:00,
2013-03-18 06:49:00,57.0,52.2,30.03,West,270,2.0,-999.0,84,0.00,,,0.00,1,Wunderground v.1.15,2013-03-17 19:49:00,
2013-03-18 06:54:00,57.0,52.2,30.03,West,270,2.0,-999.0,84,0.00,,,0.00,1,Wunderground v.1.15,2013-03-17 19:54:00,
2013-03-18 06:59:00,57.0,52.2,30.03,West,270,2.0,-999.0,84,0.00,,,0.00,1,Wunderground v.1.15,2013-03-17 19:59:00,
2013-03-18 07:04:00,57.0,52.2,30.03,West,270,2.0,-999.0,84,0.00,,,0.00,1,Wunderground v.1.15,2013-03-17 20:04:00,
2013-03-18 07:09:00,57.0,52.2,30.03,West,270,2.0,-999.0,84,0.00,,,0.00,1,Wunderground v.1.15,2013-03-17 20:09:00,
2013-03-18 07:14:00,57.0,52.2,30.03,West,270,2.0,-999.0,84,0.00,,,0.00,1,Wunderground v.1.15,2013-03-17 20:14:00,
2013-03-18 07:19:00,57.1,51.7,30.05,SW,225,3.0,-999.0,82,0.00,,,0.00,15,Wunderground v.1.15,2013-03-17 20:19:00,
2013-03-18 07:24:00,57.1,51.7,30.05,SW,225,3.0,-999.0,82,0.00,,,0.00,15,Wunderground v.1.15,2013-03-17 20:24:00,
2013-03-18 07:29:00,57.1,51.7,30.05,SW,225,3.0,-999.0,82,0.00,,,0.00,15,Wunderground v.1.15,2013-03-17 20:29:00,
2013-03-18 07:34:00,57.1,51.7,30.05,SW,225,3.0,-999.0,82,0.00,,,0.00,15,Wunderground v.1.15,2013-03-17 20:34:00,
2013-03-18 07:39:00,57.1,51.7,30.05,SW,225,3.0,-999.0,82,0.00,,,0.00,15,Wunderground v.1.15,2013-03-17 20:39:00,
2013-03-18 07:44:00,57.1,51.7,30.05,SW,225,3.0,-999.0,82,0.00,,,0.00,15,Wunderground v.1.15,2013-03-17 20:44:00,
2013-03-18 07:49:00,57.7,52.2,30.05,SW,225,2.0,-999.0,82,0.00,,,0.00,36,Wunderground v.1.15,2013-03-17 20:49:00,
2013-03-18 07:54:00,57.7,52.2,30.05,SW,225,2.0,-999.0,82,0.00,,,0.00,36,Wunderground v.1.15,2013-03-17 20:54:00,
2013-03-18 07:59:00,57.7,52.2,30.05,SW,225,2.0,-999.0,82,0.00,,,0.00,36,Wunderground v.1.15,2013-03-17 20:59:00,
2013-03-18 08:04:00,57.7,52.2,30.05,SW,225,2.0,-999.0,82,0.00,,,0.00,36,Wunderground v.1.15,2013-03-17 21:04:00,
2013-03-18 08:09:00,57.7,52.2,30.05,SW,225,2.0,-999.0,82,0.00,,,0.00,36,Wunderground v.1.15,2013-03-17 21:09:00,
2013-03-18 08:14:00,57.7,52.2,30.05,SW,225,2.0,-999.0,82,0.00,,,0.00,36,Wunderground v.1.15,2013-03-17 21:14:00,
2013-03-18 08:19:00,59.1,51.9,30.06,SW,225,4.0,-999.0,77,0.00,,,0.00,217,Wunderground v.1.15,2013-03-17 21:19:00,
2013-03-18 08:24:00,59.1,51.9,30.06,SW,225,4.0,-999.0,77,0.00,,,0.00,217,Wunderground v.1.15,2013-03-17 21:24:00,
2013-03-18 08:29:00,59.1,51.9,30.06,SW,225,4.0,-999.0,77,0.00,,,0.00,217,Wunderground v.1.15,2013-03-17 21:29:00,
2013-03-18 08:34:00,59.1,51.9,30.06,SW,225,4.0,-999.0,77,0.00,,,0.00,217,Wunderground v.1.15,2013-03-17 21:34:00,
2013-03-18 08:39:00,59.1,51.9,30.06,SW,225,4.0,-999.0,77,0.00,,,0.00,217,Wunderground v.1.15,2013-03-17 21:39:00,
2013-03-18 08:44:00,59.1,51.9,30.06,SW,225,4.0,-999.0,77,0.00,,,0.00,217,Wunderground v.1.15,2013-03-17 21:44:00,
2013-03-18 08:49:00,60.5,52.9,30.06,SW,225,4.0,-999.0,76,0.00,,,0.00,338,Wunderground v.1.15,2013-03-17 21:49:00,
2013-03-18 08:54:00,60.5,52.9,30.06,SW,225,4.0,-999.0,76,0.00,,,0.00,338,Wunderground v.1.15,2013-03-17 21:54:00,
2013-03-18 08:59:00,60.5,52.9,30.06,SW,225,4.0,-999.0,76,0.00,,,0.00,338,Wunderground v.1.15,2013-03-17 21:59:00,
2013-03-18 09:04:00,60.5,52.9,30.06,SW,225,4.0,-999.0,76,0.00,,,0.00,338,Wunderground v.1.15,2013-03-17 22:04:00,
2013-03-18 09:09:00,60.5,52.9,30.06,SW,225,4.0,-999.0,76,0.00,,,0.00,338,Wunderground v.1.15,2013-03-17 22:09:00,
2013-03-18 09:14:00,60.5,52.9,30.06,SW,225,4.0,-999.0,76,0.00,,,0.00,338,Wunderground v.1.15,2013-03-17 22:14:00,
2013-03-18 09:19:00,62.0,53.6,30.06,SW,225,4.0,-999.0,74,0.00,,,0.00,438,Wunderground v.1.15,2013-03-17 22:19:00,
2013-03-18 09:24:00,62.0,53.6,30.06,SW,225,4.0,-999.0,74,0.00,,,0.00,438,Wunderground v.1.15,2013-03-17 22:24:00,
2013-03-18 09:29:00,62.0,53.6,30.06,SW,225,4.0,-999.0,74,0.00,,,0.00,438,Wunderground v.1.15,2013-03-17 22:29:00,
2013-03-18 09:34:00,62.0,53.6,30.06,SW,225,4.0,-999.0,74,0.00,,,0.00,438,Wunderground v.1.15,2013-03-17 22:34:00,
2013-03-18 09:39:00,62.0,53.6,30.06,SW,225,4.0,-999.0,74,0.00,,,0.00,438,Wunderground v.1.15,2013-03-17 22:39:00,
2013-03-18 09:44:00,62.0,53.6,30.06,SW,225,4.0,-999.0,74,0.00,,,0.00,438,Wunderground v.1.15,2013-03-17 22:44:00,
2013-03-18 09:49:00,63.7,54.1,30.07,SW,225,4.0,-999.0,71,0.00,,,0.00,547,Wunderground v.1.15,2013-03-17 22:49:00,
2013-03-18 09:54:00,63.7,54.1,30.07,SW,225,4.0,-999.0,71,0.00,,,0.00,547,Wunderground v.1.15,2013-03-17 22:54:00,
2013-03-18 09:59:00,63.7,54.1,30.07,SW,225,4.0,-999.0,71,0.00,,,0.00,547,Wunderground v.1.15,2013-03-17 22:59:00,
2013-03-18 10:04:00,63.7,54.1,30.07,SW,225,4.0,-999.0,71,0.00,,,0.00,547,Wunderground v.1.15,2013-03-17 23:04:00,
2013-03-18 10:09:00,63.7,54.1,30.07,SW,225,4.0,-999.0,71,0.00,,,0.00,547,Wunderground v.1.15,2013-03-17 23:09:00,
2013-03-18 10:14:00,63.7,54.1,30.07,SW,225,4.0,-999.0,71,0.00,,,0.00,547,Wunderground v.1.15,2013-03-17 23:14:00,
2013-03-18 10:19:00,65.6,55.2,30.08,WSW,248,4.0,-999.0,69,0.00,,,0.00,635,Wunderground v.1.15,2013-03-17 23:19:00,
2013-03-18 10:24:00,65.6,55.2,30.08,WSW,248,4.0,-999.0,69,0.00,,,0.00,635,Wunderground v.1.15,2013-03-17 23:24:00,
2013-03-18 10:29:00,65.6,55.2,30.08,WSW,248,4.0,-999.0,69,0.00,,,0.00,635,Wunderground v.1.15,2013-03-17 23:29:00,
2013-03-18 10:34:00,65.6,55.2,30.08,WSW,248,4.0,-999.0,69,0.00,,,0.00,635,Wunderground v.1.15,2013-03-17 23:34:00,
2013-03-18 10:39:00,65.6,55.2,30.08,WSW,248,4.0,-999.0,69,0.00,,,0.00,635,Wunderground v.1.15,2013-03-17 23:39:00,
2013-03-18 10:44:00,65.6,55.2,30.08,WSW,248,4.0,-999.0,69,0.00,,,0.00,635,Wunderground v.1.15,2013-03-17 23:44:00,
2013-03-18 10:49:00,67.3,56.0,30.08,SW,225,3.0,-999.0,67,0.00,,,0.00,711,Wunderground v.1.15,2013-03-17 23:49:00,
2013-03-18 10:54:00,67.3,56.0,30.08,SW,225,3.0,-999.0,67,0.00,,,0.00,711,Wunderground v.1.15,2013-03-17 23:54:00,
2013-03-18 10:59:00,67.3,56.0,30.08,SW,225,3.0,-999.0,67,0.00,,,0.00,711,Wunderground v.1.15,2013-03-17 23:59:00,
2013-03-18 11:04:00,67.3,56.0,30.08,SW,225,3.0,-999.0,67,0.00,,,0.00,711,Wunderground v.1.15,2013-03-18 00:04:00,
2013-03-18 11:09:00,67.3,56.0,30.08,SW,225,3.0,-999.0,67,0.00,,,0.00,711,Wunderground v.1.15,2013-03-18 00:09:00,
2013-03-18 11:14:00,67.3,56.0,30.08,SW,225,3.0,-999.0,67,0.00,,,0.00,711,Wunderground v.1.15,2013-03-18 00:14:00,
2013-03-18 11:19:00,68.7,56.9,30.08,WSW,258,4.0,4.0,66,0.00,,,0.00,844,Wunderground v.1.15,2013-03-18 00:19:00,
2013-03-18 11:24:00,69.7,57.4,30.08,SSW,209,4.0,4.0,65,0.00,,,0.00,912,Wunderground v.1.15,2013-03-18 00:24:00,
2013-03-18 11:29:00,69.6,56.9,30.08,SW,230,3.0,3.0,64,0.00,,,0.00,814,Wunderground v.1.15,2013-03-18 00:29:00,
2013-03-18 11:34:00,70.2,57.9,30.08,SSW,207,3.0,3.0,65,0.00,,,0.00,958,Wunderground v.1.15,2013-03-18 00:34:00,
2013-03-18 11:39:00,68.6,55.9,30.08,SW,225,4.0,-999.0,64,0.00,,,0.00,815,Wunderground v.1.15,2013-03-18 00:39:00,
2013-03-18 11:44:00,70.4,57.2,30.07,West,261,3.0,3.0,63,0.00,,,0.00,272,Wunderground v.1.15,2013-03-18 00:44:00,
2013-03-18 11:49:00,70.0,56.8,30.07,WSW,240,3.0,3.0,63,0.00,,,0.00,605,Wunderground v.1.15,2013-03-18 00:49:00,
2013-03-18 11:54:00,71.6,57.4,30.07,SSE,158,3.0,5.0,61,0.00,,,0.00,1055,Wunderground v.1.15,2013-03-18 00:54:00,
2013-03-18 11:59:00,70.5,56.4,30.07,SSE,161,3.0,6.0,61,0.00,,,0.00,353,Wunderground v.1.15,2013-03-18 00:59:00,
2013-03-18 12:04:00,70.4,56.3,30.07,WSW,248,3.0,-999.0,61,0.00,,,0.00,835,Wunderground v.1.15,2013-03-18 01:04:00,
2013-03-18 12:09:00,70.6,56.5,30.07,WSW,246,3.0,5.0,61,0.00,,,0.00,299,Wunderground v.1.15,2013-03-18 01:09:00,
2013-03-18 12:14:00,69.8,55.7,30.07,South,181,3.0,3.0,61,0.00,,,0.00,383,Wunderground v.1.15,2013-03-18 01:14:00,
2013-03-18 12:19:00,70.2,56.6,30.07,West,280,3.0,8.0,62,0.00,,,0.00,374,Wunderground v.1.15,2013-03-18 01:19:00,
2013-03-18 12:24:00,70.0,56.8,30.07,WSW,248,3.0,-999.0,63,0.00,,,0.00,411,Wunderground v.1.15,2013-03-18 01:24:00,
2013-03-18 12:29:00,69.1,56.0,30.07,West,273,4.0,6.0,63,0.00,,,0.00,313,Wunderground v.1.15,2013-03-18 01:29:00,
2013-03-18 12:34:00,70.0,56.8,30.07,WSW,248,3.0,-999.0,63,0.00,,,0.00,411,Wunderground v.1.15,2013-03-18 01:34:00,
2013-03-18 12:39:00,69.8,57.1,30.07,NNW,331,3.0,4.0,64,0.00,,,0.00,348,Wunderground v.1.15,2013-03-18 01:39:00,
2013-03-18 12:44:00,70.5,57.3,30.06,West,272,4.0,6.0,63,0.00,,,0.00,872,Wunderground v.1.15,2013-03-18 01:44:00,
2013-03-18 12:49:00,70.9,56.8,30.06,SW,217,4.0,6.0,61,0.00,,,0.00,309,Wunderground v.1.15,2013-03-18 01:49:00,
2013-03-18 12:54:00,69.2,56.9,30.06,SW,222,4.0,6.0,65,0.00,,,0.00,253,Wunderground v.1.15,2013-03-18 01:54:00,
2013-03-18 12:59:00,69.8,58.3,30.06,WSW,248,4.0,-999.0,67,0.00,,,0.00,535,Wunderground v.1.15,2013-03-18 01:59:00,
2013-03-18 13:04:00,69.1,57.3,30.06,West,275,4.0,4.0,66,0.00,,,0.00,406,Wunderground v.1.15,2013-03-18 02:04:00,
2013-03-18 13:09:00,68.5,56.7,30.05,West,270,3.0,4.0,66,0.00,,,0.00,439,Wunderground v.1.15,2013-03-18 02:09:00,
2013-03-18 13:14:00,69.6,57.7,30.05,WSW,245,4.0,4.0,66,0.00,,,0.00,795,Wunderground v.1.15,2013-03-18 02:14:00,
2013-03-18 13:19:00,72.5,58.3,30.06,WNW,296,3.0,4.0,61,0.00,,,0.00,628,Wunderground v.1.15,2013-03-18 02:19:00,
2013-03-18 13:24:00,70.5,55.9,30.05,West,270,3.0,-999.0,60,0.00,,,0.00,587,Wunderground v.1.15,2013-03-18 02:24:00,
2013-03-18 13:29:00,71.7,57.5,30.05,SW,217,3.0,7.0,61,0.00,,,0.00,436,Wunderground v.1.15,2013-03-18 02:29:00,
2013-03-18 13:34:00,70.5,55.9,30.05,West,270,3.0,-999.0,60,0.00,,,0.00,587,Wunderground v.1.15,2013-03-18 02:34:00,
2013-03-18 13:39:00,69.8,56.2,30.05,SSE,159,3.0,3.0,62,0.00,,,0.00,334,Wunderground v.1.15,2013-03-18 02:39:00,
2013-03-18 13:44:00,69.6,56.9,30.05,SSW,207,3.0,4.0,64,0.00,,,0.00,376,Wunderground v.1.15,2013-03-18 02:44:00,
2013-03-18 13:49:00,69.4,57.1,30.06,West,261,3.0,6.0,65,0.00,,,0.00,332,Wunderground v.1.15,2013-03-18 02:49:00,
2013-03-18 13:54:00,69.7,57.4,30.06,SW,225,3.0,-999.0,65,0.00,,,0.00,368,Wunderground v.1.15,2013-03-18 02:54:00,
2013-03-18 13:59:00,68.9,57.1,30.06,WSW,256,3.0,3.0,66,0.00,,,0.00,371,Wunderground v.1.15,2013-03-18 02:59:00,
2013-03-18 14:04:00,69.5,57.2,30.05,WSW,237,3.0,4.0,65,0.00,,,0.00,396,Wunderground v.1.15,2013-03-18 03:04:00,
2013-03-18 14:09:00,71.1,57.4,30.05,NW,309,3.0,4.0,62,0.00,,,0.00,422,Wunderground v.1.15,2013-03-18 03:09:00,
2013-03-18 14:14:00,71.7,57.1,30.05,SW,222,2.0,7.0,60,0.00,,,0.00,784,Wunderground v.1.15,2013-03-18 03:14:00,
2013-03-18 14:19:00,71.9,57.3,30.05,SW,231,3.0,7.0,60,0.00,,,0.00,482,Wunderground v.1.15,2013-03-18 03:19:00,
2013-03-18 14:24:00,70.9,56.3,30.05,SW,225,3.0,-999.0,60,0.00,,,0.00,561,Wunderground v.1.15,2013-03-18 03:24:00,
2013-03-18 14:29:00,72.2,58.5,30.05,South,171,3.0,3.0,62,0.00,,,0.00,1148,Wunderground v.1.15,2013-03-18 03:29:00,
2013-03-18 14:34:00,70.9,56.3,30.05,SW,225,3.0,-999.0,60,0.00,,,0.00,561,Wunderground v.1.15,2013-03-18 03:34:00,
2013-03-18 14:39:00,71.8,57.6,30.04,West,270,3.0,4.0,61,0.00,,,0.00,489,Wunderground v.1.15,2013-03-18 03:39:00,
2013-03-18 14:44:00,71.6,57.0,30.04,SSW,199,2.0,2.0,60,0.00,,,0.00,397,Wunderground v.1.15,2013-03-18 03:44:00,
2013-03-18 14:49:00,71.8,57.2,30.04,NE,52,2.0,2.0,60,0.00,,,0.00,550,Wunderground v.1.15,2013-03-18 03:49:00,
2013-03-18 14:54:00,71.8,57.6,30.04,West,270,2.0,-999.0,61,0.00,,,0.00,500,Wunderground v.1.15,2013-03-18 03:54:00,
2013-03-18 14:59:00,71.6,57.4,30.04,WNW,284,3.0,3.0,61,0.00,,,0.00,461,Wunderground v.1.15,2013-03-18 03:59:00,
2013-03-18 15:04:00,72.1,57.9,30.04,West,279,2.0,4.0,61,0.00,,,0.00,403,Wunderground v.1.15,2013-03-18 04:04:00,
2013-03-18 15:09:00,72.5,58.3,30.04,WSW,246,2.0,5.0,61,0.00,,,0.00,849,Wunderground v.1.15,2013-03-18 04:09:00,
2013-03-18 15:14:00,71.7,57.5,30.04,NW,314,3.0,3.0,61,0.00,,,0.00,719,Wunderground v.1.15,2013-03-18 04:14:00,
2013-03-18 15:19:00,73.4,57.7,30.04,SSW,209,3.0,4.0,58,0.00,,,0.00,671,Wunderground v.1.15,2013-03-18 04:19:00,
2013-03-18 15:24:00,71.9,57.3,30.03,WSW,256,3.0,3.0,60,0.00,,,0.00,529,Wunderground v.1.15,2013-03-18 04:24:00,
2013-03-18 15:29:00,72.1,57.4,30.03,South,182,2.0,3.0,60,0.00,,,0.00,798,Wunderground v.1.15,2013-03-18 04:29:00,
2013-03-18 15:34:00,72.2,58.0,30.03,West,270,2.0,-999.0,61,0.00,,,0.00,659,Wunderground v.1.15,2013-03-18 04:34:00,
2013-03-18 15:39:00,71.4,56.8,30.04,SW,217,3.0,3.0,60,0.00,,,0.00,773,Wunderground v.1.15,2013-03-18 04:39:00,
2013-03-18 15:44:00,72.2,58.0,30.03,West,270,2.0,-999.0,61,0.00,,,0.00,659,Wunderground v.1.15,2013-03-18 04:44:00,
2013-03-18 15:49:00,72.3,57.2,30.04,SSW,195,3.0,5.0,59,0.00,,,0.00,705,Wunderground v.1.15,2013-03-18 04:49:00,
2013-03-18 15:54:00,74.5,57.3,30.04,SSW,192,2.0,4.0,55,0.00,,,0.00,598,Wunderground v.1.15,2013-03-18 04:54:00,
2013-03-18 15:59:00,72.1,56.0,30.04,SW,232,2.0,4.0,57,0.00,,,0.00,663,Wunderground v.1.15,2013-03-18 04:59:00,
2013-03-18 16:04:00,73.1,57.4,30.04,West,259,2.0,2.0,58,0.00,,,0.00,471,Wunderground v.1.15,2013-03-18 05:04:00,
2013-03-18 16:09:00,72.6,57.0,30.04,WSW,248,3.0,-999.0,58,0.00,,,0.00,637,Wunderground v.1.15,2013-03-18 05:09:00,
2013-03-18 16:14:00,72.8,55.7,30.04,NNW,330,2.0,4.0,55,0.00,,,0.00,390,Wunderground v.1.15,2013-03-18 05:14:00,
2013-03-18 16:19:00,72.8,55.7,30.04,WSW,245,2.0,4.0,55,0.00,,,0.00,520,Wunderground v.1.15,2013-03-18 05:19:00,
2013-03-18 16:24:00,72.4,55.3,30.04,South,178,2.0,2.0,55,0.00,,,0.00,545,Wunderground v.1.15,2013-03-18 05:24:00,
2013-03-18 16:29:00,72.8,55.2,30.04,SW,225,2.0,-999.0,54,0.00,,,0.00,508,Wunderground v.1.15,2013-03-18 05:29:00,
2013-03-18 16:34:00,72.9,55.8,30.04,East,85,2.0,2.0,55,0.00,,,0.00,512,Wunderground v.1.15,2013-03-18 05:34:00,
2013-03-18 16:39:00,72.8,55.2,30.04,SW,225,2.0,-999.0,54,0.00,,,0.00,508,Wunderground v.1.15,2013-03-18 05:39:00,
2013-03-18 16:44:00,72.9,55.8,30.04,West,269,2.0,6.0,55,0.00,,,0.00,476,Wunderground v.1.15,2013-03-18 05:44:00,
2013-03-18 16:49:00,72.2,55.1,30.04,West,267,3.0,6.0,55,0.00,,,0.00,462,Wunderground v.1.15,2013-03-18 05:49:00,
2013-03-18 16:54:00,72.7,57.1,30.04,SW,225,2.0,-999.0,58,0.00,,,0.00,466,Wunderground v.1.15,2013-03-18 05:54:00,
2013-03-18 16:59:00,72.2,56.6,30.04,SW,220,2.0,4.0,58,0.00,,,0.00,432,Wunderground v.1.15,2013-03-18 05:59:00,
2013-03-18 17:04:00,72.5,57.4,30.04,ESE,109,3.0,3.0,59,0.00,,,0.00,420,Wunderground v.1.15,2013-03-18 06:04:00,
2013-03-18 17:09:00,72.7,57.1,30.04,SE,137,2.0,3.0,58,0.00,,,0.00,401,Wunderground v.1.15,2013-03-18 06:09:00,
2013-03-18 17:14:00,72.7,57.1,30.04,SW,225,2.0,-999.0,58,0.00,,,0.00,466,Wunderground v.1.15,2013-03-18 06:14:00,
2013-03-18 17:19:00,71.3,56.7,30.05,South,174,2.0,4.0,60,0.00,,,0.00,352,Wunderground v.1.15,2013-03-18 06:19:00,
2013-03-18 17:24:00,71.4,56.8,30.05,SSW,207,2.0,2.0,60,0.00,,,0.00,323,Wunderground v.1.15,2013-03-18 06:24:00,
2013-03-18 17:29:00,72.0,57.4,30.05,East,99,2.0,2.0,60,0.00,,,0.00,301,Wunderground v.1.15,2013-03-18 06:29:00,
2013-03-18 17:34:00,72.0,57.4,30.05,SSW,203,2.0,-999.0,60,0.00,,,0.00,357,Wunderground v.1.15,2013-03-18 06:34:00,
2013-03-18 17:39:00,72.2,57.1,30.05,SSW,196,1.0,1.0,59,0.00,,,0.00,267,Wunderground v.1.15,2013-03-18 06:39:00,
2013-03-18 17:44:00,71.6,57.0,30.05,SW,217,1.0,3.0,60,0.00,,,0.00,251,Wunderground v.1.15,2013-03-18 06:44:00,
2013-03-18 17:49:00,71.6,58.3,30.05,SW,225,1.0,-999.0,63,0.00,,,0.00,244,Wunderground v.1.15,2013-03-18 06:49:00,
2013-03-18 17:54:00,70.7,57.0,30.05,WSW,257,2.0,2.0,62,0.00,,,0.00,192,Wunderground v.1.15,2013-03-18 06:54:00,
2013-03-18 17:59:00,70.3,57.1,30.05,SSE,168,2.0,2.0,63,0.00,,,0.00,206,Wunderground v.1.15,2013-03-18 06:59:00,
2013-03-18 18:04:00,70.2,57.9,30.05,SSW,203,2.0,3.0,65,0.00,,,0.00,148,Wunderground v.1.15,2013-03-18 07:04:00,
2013-03-18 18:09:00,69.7,57.8,30.06,North,360,1.0,3.0,66,0.00,,,0.00,56,Wunderground v.1.15,2013-03-18 07:09:00,
2013-03-18 18:14:00,71.6,58.3,30.05,SW,225,1.0,-999.0,63,0.00,,,0.00,244,Wunderground v.1.15,2013-03-18 07:14:00,
2013-03-18 18:19:00,68.6,56.8,30.06,SW,234,1.0,1.0,66,0.00,,,0.00,44,Wunderground v.1.15,2013-03-18 07:19:00,
2013-03-18 18:24:00,68.6,57.2,30.06,West,276,1.0,1.0,67,0.00,,,0.00,111,Wunderground v.1.15,2013-03-18 07:24:00,
2013-03-18 18:29:00,68.6,56.4,30.06,WNW,297,1.0,1.0,65,0.00,,,0.00,51,Wunderground v.1.15,2013-03-18 07:29:00,
2013-03-18 18:34:00,69.2,57.4,30.06,West,270,1.0,-999.0,66,0.00,,,0.00,88,Wunderground v.1.15,2013-03-18 07:34:00,
2013-03-18 18:39:00,68.1,56.7,30.06,West,267,1.0,1.0,67,0.00,,,0.00,25,Wunderground v.1.15,2013-03-18 07:39:00,
2013-03-18 18:44:00,67.7,56.3,30.06,SW,222,1.0,1.0,67,0.00,,,0.00,28,Wunderground v.1.15,2013-03-18 07:44:00,
2013-03-18 18:49:00,67.7,56.8,30.07,West,270,1.0,-999.0,68,0.00,,,0.00,24,Wunderground v.1.15,2013-03-18 07:49:00,
2013-03-18 18:54:00,67.1,56.2,30.07,West,262,0.0,0.0,68,0.00,,,0.00,19,Wunderground v.1.15,2013-03-18 07:54:00,
2013-03-18 18:59:00,67.1,56.2,30.07,West,262,0.0,0.0,68,0.00,,,0.00,12,Wunderground v.1.15,2013-03-18 07:59:00,
2013-03-18 19:04:00,67.7,56.8,30.07,West,270,1.0,-999.0,68,0.00,,,0.00,24,Wunderground v.1.15,2013-03-18 08:04:00,
2013-03-18 19:09:00,66.6,56.5,30.07,West,262,0.0,0.0,70,0.00,,,0.00,0,Wunderground v.1.15,2013-03-18 08:09:00,
2013-03-18 19:14:00,66.3,56.2,30.07,West,262,0.0,0.0,70,0.00,,,0.00,0,Wunderground v.1.15,2013-03-18 08:14:00,
2013-03-18 19:19:00,65.9,56.2,30.07,West,262,0.0,0.0,71,0.00,,,0.00,0,Wunderground v.1.15,2013-03-18 08:19:00,
2013-03-18 19:24:00,66.2,56.9,30.07,West,270,0.0,-999.0,72,0.00,,,0.00,2,Wunderground v.1.15,2013-03-18 08:24:00,
2013-03-18 19:29:00,65.2,55.9,30.07,West,262,0.0,0.0,72,0.00,,,0.00,0,Wunderground v.1.15,2013-03-18 08:29:00,
2013-03-18 19:34:00,66.2,56.9,30.07,West,270,0.0,-999.0,72,0.00,,,0.00,2,Wunderground v.1.15,2013-03-18 08:34:00,
2013-03-18 19:39:00,64.7,55.8,30.07,West,262,0.0,0.0,73,0.00,,,0.00,0,Wunderground v.1.15,2013-03-18 08:39:00,
2013-03-18 19:44:00,66.2,56.9,30.07,West,270,0.0,-999.0,72,0.00,,,0.00,2,Wunderground v.1.15,2013-03-18 08:44:00,
2013-03-18 19:49:00,64.3,56.2,30.08,N/A,-737280,0.0,-999.0,75,0.00,,,0.00,0,Wunderground v.1.15,2013-03-18 08:49:00,
2013-03-18 19:54:00,64.3,56.2,30.08,N/A,-737280,0.0,-999.0,75,0.00,,,0.00,0,Wunderground v.1.15,2013-03-18 08:54:00,
2013-03-18 19:59:00,64.3,56.2,30.08,N/A,-737280,0.0,-999.0,75,0.00,,,0.00,0,Wunderground v.1.15,2013-03-18 08:59:00,
2013-03-18 20:04:00,64.3,56.2,30.08,N/A,-737280,0.0,-999.0,75,0.00,,,0.00,0,Wunderground v.1.15,2013-03-18 09:04:00,
2013-03-18 20:09:00,64.3,56.2,30.08,N/A,-737280,0.0,-999.0,75,0.00,,,0.00,0,Wunderground v.1.15,2013-03-18 09:09:00,
2013-03-18 20:14:00,64.3,56.2,30.08,N/A,-737280,0.0,-999.0,75,0.00,,,0.00,0,Wunderground v.1.15,2013-03-18 09:14:00,
2013-03-18 20:19:00,63.1,56.1,30.09,N/A,-737280,0.0,-999.0,78,0.00,,,0.00,0,Wunderground v.1.15,2013-03-18 09:19:00,
2013-03-18 20:24:00,63.1,56.1,30.09,N/A,-737280,0.0,-999.0,78,0.00,,,0.00,0,Wunderground v.1.15,2013-03-18 09:24:00,
2013-03-18 20:29:00,63.1,56.1,30.09,N/A,-737280,0.0,-999.0,78,0.00,,,0.00,0,Wunderground v.1.15,2013-03-18 09:29:00,
2013-03-18 20:34:00,63.1,56.1,30.09,N/A,-737280,0.0,-999.0,78,0.00,,,0.00,0,Wunderground v.1.15,2013-03-18 09:34:00,
2013-03-18 20:39:00,63.1,56.1,30.09,N/A,-737280,0.0,-999.0,78,0.00,,,0.00,0,Wunderground v.1.15,2013-03-18 09:39:00,
2013-03-18 20:44:00,63.1,56.1,30.09,N/A,-737280,0.0,-999.0,78,0.00,,,0.00,0,Wunderground v.1.15,2013-03-18 09:44:00,
2013-03-18 20:49:00,62.3,55.7,30.10,N/A,-737280,0.0,-999.0,79,0.00,,,0.00,0,Wunderground v.1.15,2013-03-18 09:49:00,
2013-03-18 20:54:00,62.3,55.7,30.10,N/A,-737280,0.0,-999.0,79,0.00,,,0.00,0,Wunderground v.1.15,2013-03-18 09:54:00,
2013-03-18 20:59:00,62.3,55.7,30.10,N/A,-737280,0.0,-999.0,79,0.00,,,0.00,0,Wunderground v.1.15,2013-03-18 09:59:00,
2013-03-18 21:04:00,62.3,55.7,30.10,N/A,-737280,0.0,-999.0,79,0.00,,,0.00,0,Wunderground v.1.15,2013-03-18 10:04:00,
2013-03-18 21:09:00,62.3,55.7,30.10,N/A,-737280,0.0,-999.0,79,0.00,,,0.00,0,Wunderground v.1.15,2013-03-18 10:09:00,
2013-03-18 21:14:00,62.3,55.7,30.10,N/A,-737280,0.0,-999.0,79,0.00,,,0.00,0,Wunderground v.1.15,2013-03-18 10:14:00,
2013-03-18 21:19:00,62.0,55.8,30.11,West,270,0.0,-999.0,80,0.00,,,0.00,0,Wunderground v.1.15,2013-03-18 10:19:00,
2013-03-18 21:24:00,62.0,55.8,30.11,West,270,0.0,-999.0,80,0.00,,,0.00,0,Wunderground v.1.15,2013-03-18 10:24:00,
2013-03-18 21:29:00,62.0,55.8,30.11,West,270,0.0,-999.0,80,0.00,,,0.00,0,Wunderground v.1.15,2013-03-18 10:29:00,
2013-03-18 21:34:00,62.0,55.8,30.11,West,270,0.0,-999.0,80,0.00,,,0.00,0,Wunderground v.1.15,2013-03-18 10:34:00,
2013-03-18 21:39:00,62.0,55.8,30.11,West,270,0.0,-999.0,80,0.00,,,0.00,0,Wunderground v.1.15,2013-03-18 10:39:00,
2013-03-18 21:44:00,62.0,55.8,30.11,West,270,0.0,-999.0,80,0.00,,,0.00,0,Wunderground v.1.15,2013-03-18 10:44:00,
2013-03-18 21:49:00,61.6,56.4,30.12,N/A,-737280,0.0,-999.0,83,0.00,,,0.00,0,Wunderground v.1.15,2013-03-18 10:49:00,
2013-03-18 21:54:00,61.6,56.4,30.12,N/A,-737280,0.0,-999.0,83,0.00,,,0.00,0,Wunderground v.1.15,2013-03-18 10:54:00,
2013-03-18 21:59:00,61.6,56.4,30.12,N/A,-737280,0.0,-999.0,83,0.00,,,0.00,0,Wunderground v.1.15,2013-03-18 10:59:00,
2013-03-18 22:04:00,61.6,56.4,30.12,N/A,-737280,0.0,-999.0,83,0.00,,,0.00,0,Wunderground v.1.15,2013-03-18 11:04:00,
2013-03-18 22:09:00,61.6,56.4,30.12,N/A,-737280,0.0,-999.0,83,0.00,,,0.00,0,Wunderground v.1.15,2013-03-18 11:09:00,
2013-03-18 22:14:00,61.6,56.4,30.12,N/A,-737280,0.0,-999.0,83,0.00,,,0.00,0,Wunderground v.1.15,2013-03-18 11:14:00,
2013-03-18 22:19:00,61.2,56.3,30.12,West,270,0.0,-999.0,84,0.00,,,0.00,0,Wunderground v.1.15,2013-03-18 11:19:00,
2013-03-18 22:24:00,61.2,56.3,30.12,West,270,0.0,-999.0,84,0.00,,,0.00,0,Wunderground v.1.15,2013-03-18 11:24:00,
2013-03-18 22:29:00,61.2,56.3,30.12,West,270,0.0,-999.0,84,0.00,,,0.00,0,Wunderground v.1.15,2013-03-18 11:29:00,
2013-03-18 22:34:00,61.2,56.3,30.12,West,270,0.0,-999.0,84,0.00,,,0.00,0,Wunderground v.1.15,2013-03-18 11:34:00,
2013-03-18 22:39:00,61.2,56.3,30.12,West,270,0.0,-999.0,84,0.00,,,0.00,0,Wunderground v.1.15,2013-03-18 11:39:00,
2013-03-18 22:44:00,61.2,56.3,30.12,West,270,0.0,-999.0,84,0.00,,,0.00,0,Wunderground v.1.15,2013-03-18 11:44:00,
2013-03-18 22:49:00,61.0,56.5,30.12,West,270,0.0,-999.0,85,0.00,,,0.00,0,Wunderground v.1.15,2013-03-18 11:49:00,
2013-03-18 22:54:00,61.0,56.5,30.12,West,270,0.0,-999.0,85,0.00,,,0.00,0,Wunderground v.1.15,2013-03-18 11:54:00,
2013-03-18 22:59:00,61.0,56.5,30.12,West,270,0.0,-999.0,85,0.00,,,0.00,0,Wunderground v.1.15,2013-03-18 11:59:00,
2013-03-18 23:04:00,61.0,56.5,30.12,West,270,0.0,-999.0,85,0.00,,,0.00,0,Wunderground v.1.15,2013-03-18 12:04:00,
2013-03-18 23:09:00,61.0,56.5,30.12,West,270,0.0,-999.0,85,0.00,,,0.00,0,Wunderground v.1.15,2013-03-18 12:09:00,
2013-03-18 23:14:00,61.0,56.5,30.12,West,270,0.0,-999.0,85,0.00,,,0.00,0,Wunderground v.1.15,2013-03-18 12:14:00,
2013-03-18 23:19:00,60.7,56.5,30.11,West,270,0.0,-999.0,86,0.00,,,0.00,0,Wunderground v.1.15,2013-03-18 12:19:00,
2013-03-18 23:24:00,60.7,56.5,30.11,West,270,0.0,-999.0,86,0.00,,,0.00,0,Wunderground v.1.15,2013-03-18 12:24:00,
2013-03-18 23:29:00,60.7,56.5,30.11,West,270,0.0,-999.0,86,0.00,,,0.00,0,Wunderground v.1.15,2013-03-18 12:29:00,
2013-03-18 23:34:00,60.7,56.5,30.11,West,270,0.0,-999.0,86,0.00,,,0.00,0,Wunderground v.1.15,2013-03-18 12:34:00,
2013-03-18 23:39:00,60.7,56.5,30.11,West,270,0.0,-999.0,86,0.00,,,0.00,0,Wunderground v.1.15,2013-03-18 12:39:00,
2013-03-18 23:44:00,60.7,56.5,30.11,West,270,0.0,-999.0,86,0.00,,,0.00,0,Wunderground v.1.15,2013-03-18 12:44:00,
2013-03-18 23:49:00,60.6,56.4,30.11,N/A,-737280,0.0,-999.0,86,0.00,,,0.00,0,Wunderground v.1.15,2013-03-18 12:49:00,
2013-03-18 23:54:00,60.6,56.4,30.11,N/A,-737280,0.0,-999.0,86,0.00,,,0.00,0,Wunderground v.1.15,2013-03-18 12:54:00,
2013-03-18 23:59:00,60.6,56.4,30.11,N/A,-737280,0.0,-999.0,86,0.00,,,0.00,0,Wunderground v.1.15,2013-03-18 12:59:00,